sensor_id;sensor_type;location;lat;lon;timestamp;P1;durP1;ratioP1;P2;durP2;ratioP2
69588;SDS011;56792;50.644;17.984;2023-06-05T00:01:38;7.90;;;3.70;;
69588;SDS011;56792;50.644;17.984;2023-06-05T00:04:09;10.90;;;4.60;;
69588;SDS011;56792;50.644;17.984;2023-06-05T00:06:41;10.10;;;3.70;;
69588;SDS011;56792;50.644;17.984;2023-06-05T00:09:13;7.70;;;3.80;;
69588;SDS011;56792;50.644;17.984;2023-06-05T00:11:44;7.80;;;3.30;;
69588;SDS011;56792;50.644;17.984;2023-06-05T00:14:15;9.10;;;3.50;;
69588;SDS011;56792;50.644;17.984;2023-06-05T00:16:46;8.80;;;3.90;;
69588;SDS011;56792;50.644;17.984;2023-06-05T00:19:18;8.60;;;3.90;;
69588;SDS011;56792;50.644;17.984;2023-06-05T00:21:49;9.30;;;4.20;;
69588;SDS011;56792;50.644;17.984;2023-06-05T00:24:21;11.80;;;4.50;;
69588;SDS011;56792;50.644;17.984;2023-06-05T00:26:53;11.00;;;4.40;;
69588;SDS011;56792;50.644;17.984;2023-06-05T00:29:24;8.40;;;3.80;;
69588;SDS011;56792;50.644;17.984;2023-06-05T00:31:55;9.00;;;4.10;;
69588;SDS011;56792;50.644;17.984;2023-06-05T00:34:26;10.90;;;4.40;;
69588;SDS011;56792;50.644;17.984;2023-06-05T00:36:57;9.20;;;4.50;;
69588;SDS011;56792;50.644;17.984;2023-06-05T00:39:28;8.80;;;4.20;;
69588;SDS011;56792;50.644;17.984;2023-06-05T00:41:59;9.60;;;4.10;;
69588;SDS011;56792;50.644;17.984;2023-06-05T00:44:30;10.20;;;3.80;;
69588;SDS011;56792;50.644;17.984;2023-06-05T00:47:01;9.10;;;4.00;;
69588;SDS011;56792;50.644;17.984;2023-06-05T00:49:34;7.10;;;3.40;;
69588;SDS011;56792;50.644;17.984;2023-06-05T00:52:06;9.50;;;3.80;;
69588;SDS011;56792;50.644;17.984;2023-06-05T00:54:37;9.20;;;4.20;;
69588;SDS011;56792;50.644;17.984;2023-06-05T00:57:10;13.60;;;5.10;;
69588;SDS011;56792;50.644;17.984;2023-06-05T00:59:41;13.00;;;5.40;;
69588;SDS011;56792;50.644;17.984;2023-06-05T01:02:13;14.50;;;5.30;;
69588;SDS011;56792;50.644;17.984;2023-06-05T01:04:44;8.10;;;4.10;;
69588;SDS011;56792;50.644;17.984;2023-06-05T01:07:16;8.80;;;3.90;;
69588;SDS011;56792;50.644;17.984;2023-06-05T01:09:49;8.90;;;3.90;;
69588;SDS011;56792;50.644;17.984;2023-06-05T01:12:26;7.00;;;3.50;;
69588;SDS011;56792;50.644;17.984;2023-06-05T01:15:03;5.10;;;2.90;;
69588;SDS011;56792;50.644;17.984;2023-06-05T01:17:38;6.90;;;3.00;;
69588;SDS011;56792;50.644;17.984;2023-06-05T01:20:11;8.40;;;3.20;;
69588;SDS011;56792;50.644;17.984;2023-06-05T01:22:47;7.20;;;3.10;;
69588;SDS011;56792;50.644;17.984;2023-06-05T01:25:20;6.40;;;3.10;;
69588;SDS011;56792;50.644;17.984;2023-06-05T01:27:54;7.30;;;3.10;;
69588;SDS011;56792;50.644;17.984;2023-06-05T01:30:33;5.90;;;2.60;;
69588;SDS011;56792;50.644;17.984;2023-06-05T01:33:16;6.50;;;2.90;;
69588;SDS011;56792;50.644;17.984;2023-06-05T01:35:53;6.10;;;2.70;;
69588;SDS011;56792;50.644;17.984;2023-06-05T01:38:33;4.90;;;2.50;;
69588;SDS011;56792;50.644;17.984;2023-06-05T01:41:06;6.10;;;2.90;;
69588;SDS011;56792;50.644;17.984;2023-06-05T01:43:38;6.00;;;2.80;;
69588;SDS011;56792;50.644;17.984;2023-06-05T01:46:11;8.10;;;3.10;;
69588;SDS011;56792;50.644;17.984;2023-06-05T01:48:43;4.90;;;2.60;;
69588;SDS011;56792;50.644;17.984;2023-06-05T01:51:14;4.80;;;3.00;;
69588;SDS011;56792;50.644;17.984;2023-06-05T01:53:45;7.30;;;2.80;;
69588;SDS011;56792;50.644;17.984;2023-06-05T01:56:17;7.00;;;2.60;;
69588;SDS011;56792;50.644;17.984;2023-06-05T01:58:52;5.60;;;3.10;;
69588;SDS011;56792;50.644;17.984;2023-06-05T02:01:23;6.70;;;3.20;;
69588;SDS011;56792;50.644;17.984;2023-06-05T02:03:56;6.70;;;3.10;;
69588;SDS011;56792;50.644;17.984;2023-06-05T02:06:27;8.10;;;3.40;;
69588;SDS011;56792;50.644;17.984;2023-06-05T02:09:01;6.00;;;3.00;;
69588;SDS011;56792;50.644;17.984;2023-06-05T02:11:32;6.90;;;2.90;;
69588;SDS011;56792;50.644;17.984;2023-06-05T02:14:04;7.80;;;3.00;;
69588;SDS011;56792;50.644;17.984;2023-06-05T02:16:37;8.80;;;3.20;;
69588;SDS011;56792;50.644;17.984;2023-06-05T02:19:08;6.50;;;2.50;;
69588;SDS011;56792;50.644;17.984;2023-06-05T02:21:40;6.50;;;3.20;;
69588;SDS011;56792;50.644;17.984;2023-06-05T02:24:11;6.90;;;2.80;;
69588;SDS011;56792;50.644;17.984;2023-06-05T02:26:43;5.70;;;2.70;;
69588;SDS011;56792;50.644;17.984;2023-06-05T02:29:14;5.00;;;3.00;;
69588;SDS011;56792;50.644;17.984;2023-06-05T02:31:45;6.90;;;3.30;;
69588;SDS011;56792;50.644;17.984;2023-06-05T02:34:16;6.50;;;3.20;;
69588;SDS011;56792;50.644;17.984;2023-06-05T02:36:47;5.20;;;2.80;;
69588;SDS011;56792;50.644;17.984;2023-06-05T02:39:18;5.90;;;2.90;;
69588;SDS011;56792;50.644;17.984;2023-06-05T02:41:49;6.50;;;3.10;;
69588;SDS011;56792;50.644;17.984;2023-06-05T02:44:21;6.90;;;2.90;;
69588;SDS011;56792;50.644;17.984;2023-06-05T02:46:52;7.10;;;3.30;;
69588;SDS011;56792;50.644;17.984;2023-06-05T02:49:23;6.80;;;3.20;;
69588;SDS011;56792;50.644;17.984;2023-06-05T02:51:54;6.40;;;3.30;;
69588;SDS011;56792;50.644;17.984;2023-06-05T02:54:26;6.70;;;3.20;;
69588;SDS011;56792;50.644;17.984;2023-06-05T02:56:58;5.80;;;3.10;;
69588;SDS011;56792;50.644;17.984;2023-06-05T02:59:30;5.10;;;2.80;;
69588;SDS011;56792;50.644;17.984;2023-06-05T03:02:02;6.50;;;3.10;;
69588;SDS011;56792;50.644;17.984;2023-06-05T03:04:33;7.10;;;3.10;;
69588;SDS011;56792;50.644;17.984;2023-06-05T03:07:08;8.10;;;3.50;;
69588;SDS011;56792;50.644;17.984;2023-06-05T03:09:42;6.40;;;3.10;;
69588;SDS011;56792;50.644;17.984;2023-06-05T03:12:14;6.80;;;3.30;;
69588;SDS011;56792;50.644;17.984;2023-06-05T03:14:45;6.50;;;3.30;;
69588;SDS011;56792;50.644;17.984;2023-06-05T03:17:16;11.00;;;3.80;;
69588;SDS011;56792;50.644;17.984;2023-06-05T03:19:47;6.10;;;3.20;;
69588;SDS011;56792;50.644;17.984;2023-06-05T03:22:18;5.40;;;3.20;;
69588;SDS011;56792;50.644;17.984;2023-06-05T03:24:50;7.20;;;3.10;;
69588;SDS011;56792;50.644;17.984;2023-06-05T03:27:22;6.10;;;3.10;;
69588;SDS011;56792;50.644;17.984;2023-06-05T03:29:53;6.10;;;3.10;;
69588;SDS011;56792;50.644;17.984;2023-06-05T03:32:24;7.40;;;3.40;;
69588;SDS011;56792;50.644;17.984;2023-06-05T03:34:55;6.60;;;3.10;;
69588;SDS011;56792;50.644;17.984;2023-06-05T03:37:26;6.20;;;3.50;;
69588;SDS011;56792;50.644;17.984;2023-06-05T03:39:58;6.00;;;3.60;;
69588;SDS011;56792;50.644;17.984;2023-06-05T03:42:29;5.30;;;2.80;;
69588;SDS011;56792;50.644;17.984;2023-06-05T03:45:00;7.30;;;3.30;;
69588;SDS011;56792;50.644;17.984;2023-06-05T03:47:31;7.20;;;3.90;;
69588;SDS011;56792;50.644;17.984;2023-06-05T03:50:03;6.70;;;3.40;;
69588;SDS011;56792;50.644;17.984;2023-06-05T03:52:37;5.90;;;3.20;;
69588;SDS011;56792;50.644;17.984;2023-06-05T03:55:09;6.90;;;3.40;;
69588;SDS011;56792;50.644;17.984;2023-06-05T03:57:41;6.80;;;3.70;;
69588;SDS011;56792;50.644;17.984;2023-06-05T04:00:14;6.70;;;3.60;;
69588;SDS011;56792;50.644;17.984;2023-06-05T04:02:52;6.20;;;3.10;;
69588;SDS011;56792;50.644;17.984;2023-06-05T04:05:24;6.40;;;3.10;;
69588;SDS011;56792;50.644;17.984;2023-06-05T04:07:55;9.70;;;3.90;;
69588;SDS011;56792;50.644;17.984;2023-06-05T04:10:26;6.30;;;3.10;;
69588;SDS011;56792;50.644;17.984;2023-06-05T04:12:58;6.80;;;3.20;;
69588;SDS011;56792;50.644;17.984;2023-06-05T04:15:29;6.00;;;3.40;;
69588;SDS011;56792;50.644;17.984;2023-06-05T04:18:00;5.80;;;3.10;;
69588;SDS011;56792;50.644;17.984;2023-06-05T04:20:31;6.30;;;3.20;;
69588;SDS011;56792;50.644;17.984;2023-06-05T04:23:02;5.40;;;2.90;;
69588;SDS011;56792;50.644;17.984;2023-06-05T04:25:34;6.40;;;2.90;;
69588;SDS011;56792;50.644;17.984;2023-06-05T04:28:05;5.60;;;3.00;;
69588;SDS011;56792;50.644;17.984;2023-06-05T04:30:36;7.50;;;2.90;;
69588;SDS011;56792;50.644;17.984;2023-06-05T04:33:07;7.00;;;3.60;;
69588;SDS011;56792;50.644;17.984;2023-06-05T04:35:39;5.40;;;2.90;;
69588;SDS011;56792;50.644;17.984;2023-06-05T04:38:10;5.50;;;3.10;;
69588;SDS011;56792;50.644;17.984;2023-06-05T04:40:44;6.60;;;3.20;;
69588;SDS011;56792;50.644;17.984;2023-06-05T04:43:16;6.80;;;2.90;;
69588;SDS011;56792;50.644;17.984;2023-06-05T04:45:47;5.80;;;2.90;;
69588;SDS011;56792;50.644;17.984;2023-06-05T04:48:18;5.80;;;2.70;;
69588;SDS011;56792;50.644;17.984;2023-06-05T04:50:50;6.50;;;3.00;;
69588;SDS011;56792;50.644;17.984;2023-06-05T04:53:24;6.50;;;2.80;;
69588;SDS011;56792;50.644;17.984;2023-06-05T04:55:56;7.80;;;2.80;;
69588;SDS011;56792;50.644;17.984;2023-06-05T04:58:30;8.10;;;3.30;;
69588;SDS011;56792;50.644;17.984;2023-06-05T05:01:01;5.40;;;2.60;;
69588;SDS011;56792;50.644;17.984;2023-06-05T05:03:35;5.30;;;2.50;;
69588;SDS011;56792;50.644;17.984;2023-06-05T05:06:06;6.00;;;2.60;;
69588;SDS011;56792;50.644;17.984;2023-06-05T05:08:38;5.70;;;3.00;;
69588;SDS011;56792;50.644;17.984;2023-06-05T05:11:11;5.40;;;2.80;;
69588;SDS011;56792;50.644;17.984;2023-06-05T05:13:42;5.20;;;2.90;;
69588;SDS011;56792;50.644;17.984;2023-06-05T05:16:14;4.80;;;2.90;;
69588;SDS011;56792;50.644;17.984;2023-06-05T05:18:46;6.30;;;2.80;;
69588;SDS011;56792;50.644;17.984;2023-06-05T05:21:17;9.90;;;3.30;;
69588;SDS011;56792;50.644;17.984;2023-06-05T05:23:49;6.50;;;3.00;;
69588;SDS011;56792;50.644;17.984;2023-06-05T05:26:20;8.00;;;3.80;;
69588;SDS011;56792;50.644;17.984;2023-06-05T05:28:51;7.90;;;3.20;;
69588;SDS011;56792;50.644;17.984;2023-06-05T05:31:22;6.20;;;3.40;;
69588;SDS011;56792;50.644;17.984;2023-06-05T05:33:54;8.60;;;3.50;;
69588;SDS011;56792;50.644;17.984;2023-06-05T05:36:25;6.60;;;3.50;;
69588;SDS011;56792;50.644;17.984;2023-06-05T05:38:56;8.40;;;3.40;;
69588;SDS011;56792;50.644;17.984;2023-06-05T05:41:27;6.60;;;3.20;;
69588;SDS011;56792;50.644;17.984;2023-06-05T05:43:58;7.50;;;3.10;;
69588;SDS011;56792;50.644;17.984;2023-06-05T05:46:29;6.30;;;3.20;;
69588;SDS011;56792;50.644;17.984;2023-06-05T05:49:00;7.80;;;3.10;;
69588;SDS011;56792;50.644;17.984;2023-06-05T05:51:31;7.40;;;2.80;;
69588;SDS011;56792;50.644;17.984;2023-06-05T05:54:02;6.10;;;2.70;;
69588;SDS011;56792;50.644;17.984;2023-06-05T05:56:33;6.10;;;3.20;;
69588;SDS011;56792;50.644;17.984;2023-06-05T05:59:05;7.70;;;2.90;;
69588;SDS011;56792;50.644;17.984;2023-06-05T06:01:36;12.30;;;3.20;;
69588;SDS011;56792;50.644;17.984;2023-06-05T06:04:07;6.30;;;2.90;;
69588;SDS011;56792;50.644;17.984;2023-06-05T06:06:38;6.30;;;2.80;;
69588;SDS011;56792;50.644;17.984;2023-06-05T06:09:09;9.40;;;3.60;;
69588;SDS011;56792;50.644;17.984;2023-06-05T06:11:43;7.70;;;3.20;;
69588;SDS011;56792;50.644;17.984;2023-06-05T06:14:14;6.90;;;3.00;;
69588;SDS011;56792;50.644;17.984;2023-06-05T06:16:45;7.10;;;3.10;;
69588;SDS011;56792;50.644;17.984;2023-06-05T06:19:18;7.80;;;2.70;;
69588;SDS011;56792;50.644;17.984;2023-06-05T06:21:51;6.00;;;2.90;;
69588;SDS011;56792;50.644;17.984;2023-06-05T06:24:22;9.20;;;4.00;;
69588;SDS011;56792;50.644;17.984;2023-06-05T06:26:54;7.80;;;3.40;;
69588;SDS011;56792;50.644;17.984;2023-06-05T06:29:25;6.30;;;3.00;;
69588;SDS011;56792;50.644;17.984;2023-06-05T06:31:56;8.00;;;3.60;;
69588;SDS011;56792;50.644;17.984;2023-06-05T06:34:27;9.00;;;3.30;;
69588;SDS011;56792;50.644;17.984;2023-06-05T06:37:01;8.10;;;3.80;;
69588;SDS011;56792;50.644;17.984;2023-06-05T06:39:32;6.30;;;3.30;;
69588;SDS011;56792;50.644;17.984;2023-06-05T06:42:03;6.60;;;3.30;;
69588;SDS011;56792;50.644;17.984;2023-06-05T06:44:34;6.70;;;3.00;;
69588;SDS011;56792;50.644;17.984;2023-06-05T06:47:06;6.50;;;3.70;;
69588;SDS011;56792;50.644;17.984;2023-06-05T06:49:37;7.90;;;3.30;;
69588;SDS011;56792;50.644;17.984;2023-06-05T06:52:09;6.30;;;3.70;;
69588;SDS011;56792;50.644;17.984;2023-06-05T06:54:40;8.70;;;3.50;;
69588;SDS011;56792;50.644;17.984;2023-06-05T06:57:11;10.50;;;3.50;;
69588;SDS011;56792;50.644;17.984;2023-06-05T06:59:42;6.90;;;3.30;;
69588;SDS011;56792;50.644;17.984;2023-06-05T07:02:14;7.40;;;3.70;;
69588;SDS011;56792;50.644;17.984;2023-06-05T07:04:46;7.10;;;3.50;;
69588;SDS011;56792;50.644;17.984;2023-06-05T07:07:18;7.80;;;3.30;;
69588;SDS011;56792;50.644;17.984;2023-06-05T07:09:51;6.70;;;3.70;;
69588;SDS011;56792;50.644;17.984;2023-06-05T07:12:21;10.80;;;3.20;;
69588;SDS011;56792;50.644;17.984;2023-06-05T07:14:52;7.40;;;3.40;;
69588;SDS011;56792;50.644;17.984;2023-06-05T07:17:23;6.80;;;3.40;;
69588;SDS011;56792;50.644;17.984;2023-06-05T07:19:57;8.10;;;3.00;;
69588;SDS011;56792;50.644;17.984;2023-06-05T07:22:28;6.50;;;3.20;;
69588;SDS011;56792;50.644;17.984;2023-06-05T07:24:59;5.80;;;2.90;;
69588;SDS011;56792;50.644;17.984;2023-06-05T07:27:31;7.00;;;3.30;;
69588;SDS011;56792;50.644;17.984;2023-06-05T07:30:04;5.50;;;2.80;;
69588;SDS011;56792;50.644;17.984;2023-06-05T07:32:37;5.90;;;2.80;;
69588;SDS011;56792;50.644;17.984;2023-06-05T07:35:09;7.00;;;2.50;;
69588;SDS011;56792;50.644;17.984;2023-06-05T07:37:42;6.40;;;2.60;;
69588;SDS011;56792;50.644;17.984;2023-06-05T07:40:13;5.80;;;3.00;;
69588;SDS011;56792;50.644;17.984;2023-06-05T07:42:45;6.90;;;2.90;;
69588;SDS011;56792;50.644;17.984;2023-06-05T07:45:16;5.60;;;2.10;;
69588;SDS011;56792;50.644;17.984;2023-06-05T07:47:47;6.20;;;2.50;;
69588;SDS011;56792;50.644;17.984;2023-06-05T07:50:18;5.50;;;2.30;;
69588;SDS011;56792;50.644;17.984;2023-06-05T07:52:49;4.80;;;2.60;;
69588;SDS011;56792;50.644;17.984;2023-06-05T07:55:20;4.80;;;2.90;;
69588;SDS011;56792;50.644;17.984;2023-06-05T07:57:51;5.40;;;2.50;;
69588;SDS011;56792;50.644;17.984;2023-06-05T08:00:25;5.70;;;2.40;;
69588;SDS011;56792;50.644;17.984;2023-06-05T08:02:56;5.00;;;2.50;;
69588;SDS011;56792;50.644;17.984;2023-06-05T08:05:28;4.20;;;2.10;;
69588;SDS011;56792;50.644;17.984;2023-06-05T08:07:59;6.10;;;2.20;;
69588;SDS011;56792;50.644;17.984;2023-06-05T08:10:30;3.80;;;2.00;;
69588;SDS011;56792;50.644;17.984;2023-06-05T08:13:01;3.50;;;1.80;;
69588;SDS011;56792;50.644;17.984;2023-06-05T08:15:32;3.50;;;1.80;;
69588;SDS011;56792;50.644;17.984;2023-06-05T08:18:04;4.00;;;1.70;;
69588;SDS011;56792;50.644;17.984;2023-06-05T08:20:34;4.40;;;2.20;;
69588;SDS011;56792;50.644;17.984;2023-06-05T08:23:05;5.20;;;2.10;;
69588;SDS011;56792;50.644;17.984;2023-06-05T08:25:36;4.10;;;2.00;;
69588;SDS011;56792;50.644;17.984;2023-06-05T08:28:07;3.80;;;1.80;;
69588;SDS011;56792;50.644;17.984;2023-06-05T08:30:38;5.70;;;1.90;;
69588;SDS011;56792;50.644;17.984;2023-06-05T08:33:10;4.70;;;2.60;;
69588;SDS011;56792;50.644;17.984;2023-06-05T08:35:42;3.90;;;1.60;;
69588;SDS011;56792;50.644;17.984;2023-06-05T08:38:13;4.60;;;2.10;;
69588;SDS011;56792;50.644;17.984;2023-06-05T08:40:44;4.10;;;2.10;;
69588;SDS011;56792;50.644;17.984;2023-06-05T08:43:18;4.70;;;2.10;;
69588;SDS011;56792;50.644;17.984;2023-06-05T08:45:53;4.90;;;2.10;;
69588;SDS011;56792;50.644;17.984;2023-06-05T08:48:26;5.10;;;2.40;;
69588;SDS011;56792;50.644;17.984;2023-06-05T08:51:02;5.40;;;2.20;;
69588;SDS011;56792;50.644;17.984;2023-06-05T08:53:36;4.80;;;2.20;;
69588;SDS011;56792;50.644;17.984;2023-06-05T08:56:10;5.40;;;2.10;;
69588;SDS011;56792;50.644;17.984;2023-06-05T08:58:42;3.40;;;1.90;;
69588;SDS011;56792;50.644;17.984;2023-06-05T09:01:15;3.90;;;1.80;;
69588;SDS011;56792;50.644;17.984;2023-06-05T09:03:46;4.10;;;2.50;;
69588;SDS011;56792;50.644;17.984;2023-06-05T09:06:17;5.50;;;2.40;;
69588;SDS011;56792;50.644;17.984;2023-06-05T09:08:48;4.90;;;2.40;;
69588;SDS011;56792;50.644;17.984;2023-06-05T09:11:27;8.60;;;2.70;;
69588;SDS011;56792;50.644;17.984;2023-06-05T09:14:00;7.00;;;2.80;;
69588;SDS011;56792;50.644;17.984;2023-06-05T09:16:36;5.80;;;2.30;;
69588;SDS011;56792;50.644;17.984;2023-06-05T09:19:10;5.70;;;2.50;;
69588;SDS011;56792;50.644;17.984;2023-06-05T09:21:52;4.40;;;2.00;;
69588;SDS011;56792;50.644;17.984;2023-06-05T09:24:24;4.70;;;2.30;;
69588;SDS011;56792;50.644;17.984;2023-06-05T09:26:59;5.30;;;1.90;;
69588;SDS011;56792;50.644;17.984;2023-06-05T09:29:32;5.50;;;2.40;;
69588;SDS011;56792;50.644;17.984;2023-06-05T09:32:05;9.20;;;2.00;;
69588;SDS011;56792;50.644;17.984;2023-06-05T09:34:38;5.00;;;2.50;;
69588;SDS011;56792;50.644;17.984;2023-06-05T09:37:11;6.10;;;2.60;;
69588;SDS011;56792;50.644;17.984;2023-06-05T09:39:43;6.60;;;2.60;;
69588;SDS011;56792;50.644;17.984;2023-06-05T09:42:32;5.90;;;2.30;;
69588;SDS011;56792;50.644;17.984;2023-06-05T09:45:04;5.20;;;2.30;;
69588;SDS011;56792;50.644;17.984;2023-06-05T09:47:36;5.20;;;2.70;;
69588;SDS011;56792;50.644;17.984;2023-06-05T09:50:22;6.80;;;2.70;;
69588;SDS011;56792;50.644;17.984;2023-06-05T09:52:53;5.50;;;2.40;;
69588;SDS011;56792;50.644;17.984;2023-06-05T09:55:27;5.10;;;2.40;;
69588;SDS011;56792;50.644;17.984;2023-06-05T09:58:00;7.00;;;2.60;;
69588;SDS011;56792;50.644;17.984;2023-06-05T10:00:40;5.10;;;2.60;;
69588;SDS011;56792;50.644;17.984;2023-06-05T10:03:17;5.20;;;2.70;;
69588;SDS011;56792;50.644;17.984;2023-06-05T10:05:49;7.90;;;2.70;;
69588;SDS011;56792;50.644;17.984;2023-06-05T10:08:20;6.30;;;2.40;;
69588;SDS011;56792;50.644;17.984;2023-06-05T10:10:53;5.80;;;2.30;;
69588;SDS011;56792;50.644;17.984;2023-06-05T10:13:24;6.30;;;2.40;;
69588;SDS011;56792;50.644;17.984;2023-06-05T10:15:57;5.40;;;2.70;;
69588;SDS011;56792;50.644;17.984;2023-06-05T10:18:30;5.50;;;2.40;;
69588;SDS011;56792;50.644;17.984;2023-06-05T10:21:03;4.90;;;2.20;;
69588;SDS011;56792;50.644;17.984;2023-06-05T10:23:35;7.20;;;2.20;;
69588;SDS011;56792;50.644;17.984;2023-06-05T10:26:12;4.30;;;2.30;;
69588;SDS011;56792;50.644;17.984;2023-06-05T10:29:01;4.60;;;2.10;;
69588;SDS011;56792;50.644;17.984;2023-06-05T10:31:47;4.90;;;2.20;;
69588;SDS011;56792;50.644;17.984;2023-06-05T10:34:32;4.60;;;2.00;;
69588;SDS011;56792;50.644;17.984;2023-06-05T10:37:32;7.50;;;2.80;;
69588;SDS011;56792;50.644;17.984;2023-06-05T10:40:08;5.10;;;2.40;;
69588;SDS011;56792;50.644;17.984;2023-06-05T10:42:40;5.40;;;2.20;;
69588;SDS011;56792;50.644;17.984;2023-06-05T10:45:11;5.10;;;2.20;;
69588;SDS011;56792;50.644;17.984;2023-06-05T10:47:57;5.80;;;2.10;;
69588;SDS011;56792;50.644;17.984;2023-06-05T10:50:29;4.00;;;2.20;;
69588;SDS011;56792;50.644;17.984;2023-06-05T10:53:00;7.10;;;2.40;;
69588;SDS011;56792;50.644;17.984;2023-06-05T10:55:43;5.00;;;2.40;;
69588;SDS011;56792;50.644;17.984;2023-06-05T10:58:14;6.30;;;2.40;;
69588;SDS011;56792;50.644;17.984;2023-06-05T11:01:16;4.70;;;2.50;;
69588;SDS011;56792;50.644;17.984;2023-06-05T11:03:56;5.20;;;2.30;;
69588;SDS011;56792;50.644;17.984;2023-06-05T11:06:29;4.50;;;2.20;;
69588;SDS011;56792;50.644;17.984;2023-06-05T11:09:13;6.50;;;2.60;;
69588;SDS011;56792;50.644;17.984;2023-06-05T11:12:02;4.10;;;2.20;;
69588;SDS011;56792;50.644;17.984;2023-06-05T11:14:47;9.50;;;2.30;;
69588;SDS011;56792;50.644;17.984;2023-06-05T11:17:32;4.50;;;2.40;;
69588;SDS011;56792;50.644;17.984;2023-06-05T11:20:05;4.00;;;2.40;;
69588;SDS011;56792;50.644;17.984;2023-06-05T11:23:07;6.10;;;2.80;;
69588;SDS011;56792;50.644;17.984;2023-06-05T11:25:39;7.00;;;3.10;;
69588;SDS011;56792;50.644;17.984;2023-06-05T11:28:10;6.70;;;2.50;;
69588;SDS011;56792;50.644;17.984;2023-06-05T11:30:42;6.70;;;2.10;;
69588;SDS011;56792;50.644;17.984;2023-06-05T11:33:15;5.60;;;2.60;;
69588;SDS011;56792;50.644;17.984;2023-06-05T11:35:48;5.70;;;2.80;;
69588;SDS011;56792;50.644;17.984;2023-06-05T11:38:21;5.30;;;2.30;;
69588;SDS011;56792;50.644;17.984;2023-06-05T11:40:53;6.50;;;2.70;;
69588;SDS011;56792;50.644;17.984;2023-06-05T11:43:25;4.90;;;2.50;;
69588;SDS011;56792;50.644;17.984;2023-06-05T11:45:57;5.70;;;2.60;;
69588;SDS011;56792;50.644;17.984;2023-06-05T11:48:29;6.00;;;2.40;;
69588;SDS011;56792;50.644;17.984;2023-06-05T11:51:02;5.30;;;2.50;;
69588;SDS011;56792;50.644;17.984;2023-06-05T11:53:34;4.70;;;2.30;;
69588;SDS011;56792;50.644;17.984;2023-06-05T11:56:15;4.40;;;2.30;;
69588;SDS011;56792;50.644;17.984;2023-06-05T11:58:48;4.90;;;2.40;;
69588;SDS011;56792;50.644;17.984;2023-06-05T12:01:20;5.00;;;2.80;;
69588;SDS011;56792;50.644;17.984;2023-06-05T12:04:05;4.90;;;2.20;;
69588;SDS011;56792;50.644;17.984;2023-06-05T12:06:44;5.00;;;2.50;;
69588;SDS011;56792;50.644;17.984;2023-06-05T12:09:16;4.80;;;2.30;;
69588;SDS011;56792;50.644;17.984;2023-06-05T12:11:47;4.40;;;2.60;;
69588;SDS011;56792;50.644;17.984;2023-06-05T12:14:31;5.30;;;2.70;;
69588;SDS011;56792;50.644;17.984;2023-06-05T12:17:09;4.50;;;2.30;;
69588;SDS011;56792;50.644;17.984;2023-06-05T12:19:41;5.50;;;2.40;;
69588;SDS011;56792;50.644;17.984;2023-06-05T12:22:11;7.10;;;2.40;;
69588;SDS011;56792;50.644;17.984;2023-06-05T12:24:42;6.80;;;2.70;;
69588;SDS011;56792;50.644;17.984;2023-06-05T12:27:14;4.50;;;2.60;;
69588;SDS011;56792;50.644;17.984;2023-06-05T12:29:55;5.90;;;2.70;;
69588;SDS011;56792;50.644;17.984;2023-06-05T12:32:26;6.30;;;2.80;;
69588;SDS011;56792;50.644;17.984;2023-06-05T12:34:59;6.20;;;2.90;;
69588;SDS011;56792;50.644;17.984;2023-06-05T12:37:31;4.50;;;2.80;;
69588;SDS011;56792;50.644;17.984;2023-06-05T12:40:11;7.50;;;3.40;;
69588;SDS011;56792;50.644;17.984;2023-06-05T12:42:45;5.40;;;2.70;;
69588;SDS011;56792;50.644;17.984;2023-06-05T12:45:17;7.10;;;2.60;;
69588;SDS011;56792;50.644;17.984;2023-06-05T12:47:48;4.20;;;2.70;;
69588;SDS011;56792;50.644;17.984;2023-06-05T12:50:19;6.20;;;2.90;;
69588;SDS011;56792;50.644;17.984;2023-06-05T12:52:50;4.60;;;2.90;;
69588;SDS011;56792;50.644;17.984;2023-06-05T12:55:21;5.00;;;2.70;;
69588;SDS011;56792;50.644;17.984;2023-06-05T12:57:52;4.30;;;2.20;;
69588;SDS011;56792;50.644;17.984;2023-06-05T13:00:23;5.10;;;2.60;;
69588;SDS011;56792;50.644;17.984;2023-06-05T13:02:54;5.00;;;2.70;;
69588;SDS011;56792;50.644;17.984;2023-06-05T13:05:25;5.40;;;2.50;;
69588;SDS011;56792;50.644;17.984;2023-06-05T13:07:56;5.50;;;2.60;;
69588;SDS011;56792;50.644;17.984;2023-06-05T13:10:27;5.20;;;2.60;;
69588;SDS011;56792;50.644;17.984;2023-06-05T13:12:58;4.90;;;2.70;;
69588;SDS011;56792;50.644;17.984;2023-06-05T13:15:29;5.80;;;2.80;;
69588;SDS011;56792;50.644;17.984;2023-06-05T13:18:00;6.80;;;3.00;;
69588;SDS011;56792;50.644;17.984;2023-06-05T13:20:31;5.40;;;2.20;;
69588;SDS011;56792;50.644;17.984;2023-06-05T13:23:02;4.50;;;2.50;;
69588;SDS011;56792;50.644;17.984;2023-06-05T13:25:35;4.90;;;2.70;;
69588;SDS011;56792;50.644;17.984;2023-06-05T13:28:07;5.30;;;2.90;;
69588;SDS011;56792;50.644;17.984;2023-06-05T13:30:38;5.70;;;2.90;;
69588;SDS011;56792;50.644;17.984;2023-06-05T13:33:09;5.20;;;2.90;;
69588;SDS011;56792;50.644;17.984;2023-06-05T13:35:40;8.20;;;2.80;;
69588;SDS011;56792;50.644;17.984;2023-06-05T13:38:11;5.50;;;3.10;;
69588;SDS011;56792;50.644;17.984;2023-06-05T13:40:42;5.60;;;2.70;;
69588;SDS011;56792;50.644;17.984;2023-06-05T13:43:16;6.90;;;2.70;;
69588;SDS011;56792;50.644;17.984;2023-06-05T13:45:48;6.30;;;2.50;;
69588;SDS011;56792;50.644;17.984;2023-06-05T13:48:19;4.50;;;2.80;;
69588;SDS011;56792;50.644;17.984;2023-06-05T13:50:49;7.10;;;2.80;;
69588;SDS011;56792;50.644;17.984;2023-06-05T13:53:20;5.70;;;2.70;;
69588;SDS011;56792;50.644;17.984;2023-06-05T13:55:52;8.60;;;3.10;;
69588;SDS011;56792;50.644;17.984;2023-06-05T13:58:23;6.80;;;2.80;;
69588;SDS011;56792;50.644;17.984;2023-06-05T14:00:54;5.70;;;3.10;;
69588;SDS011;56792;50.644;17.984;2023-06-05T14:03:25;5.90;;;2.40;;
69588;SDS011;56792;50.644;17.984;2023-06-05T14:05:56;4.30;;;2.50;;
69588;SDS011;56792;50.644;17.984;2023-06-05T14:08:27;6.20;;;2.80;;
69588;SDS011;56792;50.644;17.984;2023-06-05T14:11:01;4.30;;;2.50;;
69588;SDS011;56792;50.644;17.984;2023-06-05T14:13:32;4.60;;;2.80;;
69588;SDS011;56792;50.644;17.984;2023-06-05T14:16:04;5.30;;;2.60;;
69588;SDS011;56792;50.644;17.984;2023-06-05T14:18:36;5.80;;;2.70;;
69588;SDS011;56792;50.644;17.984;2023-06-05T14:21:07;4.40;;;2.80;;
69588;SDS011;56792;50.644;17.984;2023-06-05T14:23:38;5.70;;;3.00;;
69588;SDS011;56792;50.644;17.984;2023-06-05T14:26:10;5.60;;;2.50;;
69588;SDS011;56792;50.644;17.984;2023-06-05T14:28:41;6.50;;;2.80;;
69588;SDS011;56792;50.644;17.984;2023-06-05T14:31:12;7.30;;;2.90;;
69588;SDS011;56792;50.644;17.984;2023-06-05T14:33:43;5.80;;;3.00;;
69588;SDS011;56792;50.644;17.984;2023-06-05T14:36:14;6.70;;;2.40;;
69588;SDS011;56792;50.644;17.984;2023-06-05T14:38:45;7.90;;;2.90;;
69588;SDS011;56792;50.644;17.984;2023-06-05T14:41:16;5.40;;;2.90;;
69588;SDS011;56792;50.644;17.984;2023-06-05T14:43:47;6.40;;;2.60;;
69588;SDS011;56792;50.644;17.984;2023-06-05T14:46:18;7.10;;;3.20;;
69588;SDS011;56792;50.644;17.984;2023-06-05T14:48:49;6.30;;;2.90;;
69588;SDS011;56792;50.644;17.984;2023-06-05T14:51:20;6.80;;;2.80;;
69588;SDS011;56792;50.644;17.984;2023-06-05T14:53:51;5.80;;;3.10;;
69588;SDS011;56792;50.644;17.984;2023-06-05T14:56:22;5.50;;;3.00;;
69588;SDS011;56792;50.644;17.984;2023-06-05T14:58:53;6.00;;;3.00;;
69588;SDS011;56792;50.644;17.984;2023-06-05T15:01:24;4.90;;;2.70;;
69588;SDS011;56792;50.644;17.984;2023-06-05T15:03:56;6.80;;;3.00;;
69588;SDS011;56792;50.644;17.984;2023-06-05T15:06:28;8.50;;;3.00;;